Bemidji Regional Airport
KBJI : rendu visible

Aérodrome :











RETROUVEZ-NOUS SUR...

 
LOGIN :

S'inscrire | Disclaimer

   EN    FR    IT 

 









Légende :    VFR   VFR Marginal   IFR   IFR Intensif   IFR Très Intensif
Visi : 
Plafond : 
>= 8 km
>= 3000ft
5 à 8 km
1000 à 3000 ft
1500m à 5 km
500 à 1000 ft
800 à 1500m
200 à 500 ft
< 800m
< 200 ft
Symboles :   Orages  Brouillard  Fortes neiges  Fortes précipitations  Vent > 20 kt






- Altitude de l'aérodrome : 1391 ft


KBJI - Bemidji Regional

DERNIER METAR :
  • 080955Z AUTO 27010KT 10SM CLR 00/M01 A2973 RMK AO2 T10051015

METARs EXPIRÉS :
  • 080935Z AUTO 26008KT 10SM CLR M02/M02 A2971 RMK AO2 T10231025
  • 080915Z AUTO 23004KT 10SM CLR M02/M02 A2970 RMK AO2 T10161016
  • 080855Z AUTO 21003KT 2SM BR CLR M03/M04 A2970 RMK AO2 T10351036
  • 080835Z AUTO 00000KT 7SM CLR M03/M03 A2971 RMK AO2 T10271027
  • 080816Z AUTO 00000KT 10SM CLR M02/M02 A2971 RMK AO2 T10201020
  • 080755Z AUTO 00000KT 10SM CLR M03/M03 A2971 RMK AO2 T10331033
  • 080736Z AUTO 00000KT 2 1/2SM BR CLR M03/M03 A2972 RMK AO2 T10301030
  • 080715Z AUTO 00000KT 10SM CLR M02/M02 A2972 RMK AO2 T10211021

TAF KBJI
Valide du 08 à 06h jusqu'au 09 à 06h UTC


080520Z 0806/0906 28007KT P6SM BKN090
FM081800 29018KT P6SM BKN060
FM090300 29011KT P6SM SCT060



MET'MAP, la Météo Aéronautique d'un coup d'oeil ! - Copyright ORBIFLY Décembre 2007 - Disclaimer

ORBIFLY MET'MAP TEAM :

Programmation & Développement : Alexandra Zaïnal
Sur une idée originale de : Baudouin d'Aumeries
Assistance à la programmation : Marc-Olivier Méhu
Soutien technique & logistique : Manuel Goepfert

Contact : metmap@orbifly.com




SOURCES & CREDITS :

   NOAA       Earth
Advisory